Flight Track Log - Related Links

Times and Time Zones

All times are in EST time to prevent confusion due to time zone crossing. See the EJA941 flight status page for this flight to view local times or setup timezone preferences in your user account.

Time Position Orientation Groundspeed Altitude Reporting Facility
EST Latitude Longitude Course Direction KTS MPH feet Rate Location/Type
Mon 08:58:03 AM 38.7914 -90.3892 93° East 211 243 4,100  Level Kansas City Center
Mon 08:59:06 AM 38.8514 -90.3456 30° Northeast 285 328 9,500 4,355 Climbing Kansas City Center
Mon 09:00:07 AM 38.8164 -90.2344 112° Southeast 336 387 13,100 3,570 Climbing Kansas City Center
Mon 09:01:07 AM 38.7753 -90.1206 115° Southeast 379 436 16,700 3,774 Climbing Kansas City Center
Mon 09:02:11 AM 38.7206 -89.9706 115° Southeast 407 468 20,900 2,081 Climbing Kansas City Center
Mon 09:03:00 AM 38.6734 -89.6633 93° East  Level Estimated
Mon 09:03:11 AM 38.6667 -89.8225 115° Southeast 447 514 21,000  Level Kansas City Center
Mon 09:04:13 AM 38.6086 -89.6658 115° Southeast 480 552 21,000  Level Kansas City Center
Mon 09:05:14 AM 38.5511 -89.5103 115° Southeast 484 557 21,000  Level Kansas City Center
Mon 09:06:18 AM 38.4942 -89.3589 116° Southeast 475 547 21,000  Level Kansas City Center
Mon 09:07:18 AM 38.4297 -89.1747 114° Southeast 475 547 21,000  Level Kansas City Center
Mon 09:08:18 AM 38.4106 -89.0011 98° East 495 570 21,000  Level Kansas City Center
Mon 09:09:20 AM 38.4050 -88.8294 92° East 487 560 21,000  Level Kansas City Center
Mon 09:10:23 AM 38.3964 -88.6436 93° East 493 567 21,000  Level Kansas City Center
Mon 09:11:24 AM 38.3889 -88.4675 93° East 496 571 21,000  Level Kansas City Center
Mon 09:12:25 AM 38.3806 -88.2914 93° East 498 573 21,000  Level Kansas City Center
Mon 09:13:30 AM 38.3725 -88.1158 93° East 497 572 21,000 -476 Level Indianapolis Center
Mon 09:14:31 AM 38.3633 -87.9389 94° East 498 573 20,000 -1,171 Descending Indianapolis Center
Mon 09:15:33 AM 38.3531 -87.7264 93° East 499 574 18,600 -1,161 Descending Indianapolis Center
Mon 09:16:35 AM 38.3433 -87.5517 94° East 493 567 17,600 -919 Descending Indianapolis Center
Mon 09:17:37 AM 38.3339 -87.3808 94° East 485 558 16,700 -871 Descending Indianapolis Center
Mon 09:18:39 AM 38.3197 -87.2111 96° East 480 552 15,800 -871 Descending Indianapolis Center
Mon 09:19:41 AM 38.2958 -87.0311 100° East 473 544 14,900 -683 Descending Indianapolis Center
Mon 09:20:42 AM 38.2753 -86.8647 99° East 471 542 14,400 -634 Descending Indianapolis Center
Mon 09:21:44 AM 38.2544 -86.7028 99° East 465 535 13,600 -1,403 Descending Indianapolis Center
Mon 09:22:46 AM 38.2408 -86.5478 96° East 442 509 11,500 -1,548 Descending Indianapolis Center
Mon 09:23:48 AM 38.2547 -86.4164 82° East 381 438 10,400 -1,355 Descending Indianapolis Center
Mon 09:24:50 AM 38.2794 -86.3003 75° East 345 397 8,700 -1,659 Descending Indianapolis Center
Mon 09:25:51 AM 38.3014 -86.1894 76° East 330 380 7,000 -1,659 Descending Indianapolis Center
Mon 09:26:53 AM 38.3214 -86.0853 76° East 311 358 5,300 -1,452 Descending Indianapolis Center
Mon 09:27:55 AM 38.3453 -85.9625 76° East 302 348 4,000 -1,113 Descending Indianapolis Center
Mon 09:28:57 AM 38.3644 -85.8622 76° East 296 341 3,000 -484 Descending Indianapolis Center
Mon 09:29:59 AM 38.3492 -85.7872 105° East 261 300 3,000 -48 Level Indianapolis Center
Mon 09:31:01 AM 38.3072 -85.7739 166° South 192 221 2,900 -145 Descending Indianapolis Center
Mon 09:32:03 AM 38.2703 -85.7581 161° South 178 205 2,700 -575 Descending Indianapolis Center
Mon 09:34:40 AM 38.2000 -85.7333 122° Southeast 111 128 800 -726 Descending Louisville TRACON

Login

Don't have an account? Register now (free) for customized features, flight alerts, and more!